Time;durP1;ratioP1;P1;durP2;ratioP2;P2;SDS_P1;SDS_P2;PMS_P1;PMS_P2;Temp;Humidity;BMP_temperature;BMP_pressure;BME280_temperature;BME280_humidity;BME280_pressure;Samples;Min_cycle;Max_cycle;Signal;HPM_P1;HPM_P2
2022/05/14 00:06:44;;;;;;;0.83;0.30;;;;;;;;;;20721593;28;20247;-68
2022/05/14 00:16:46;;;;;;;0.37;0.20;;;;;;;;;;20705998;28;20597;-67
2022/05/14 00:26:48;;;;;;;0.53;0.30;;;;;;;;;;20705522;28;20213;-68
2022/05/14 00:36:49;;;;;;;1.00;0.40;;;;;;;;;;20718254;28;20246;-68
2022/05/14 00:46:57;;;;;;;0.40;0.30;;;;;;;;;;20719257;28;20207;-68
2022/05/14 00:57:02;;;;;;;0.20;0.20;;;;;;;;;;20735118;28;20772;-67
2022/05/14 01:07:07;;;;;;;0.70;0.30;;;;;;;;;;20752327;28;20684;-67
2022/05/14 01:17:13;;;;;;;0.50;0.30;;;;;;;;;;20798917;28;20221;-67
2022/05/14 01:27:16;;;;;;;0.50;0.30;;;;;;;;;;20798109;28;20209;-67
2022/05/14 01:37:19;;;;;;;0.53;0.30;;;19.10;91.70;;;;;;20813123;28;20221;-67
2022/05/14 01:47:21;;;;;;;0.60;0.37;;;;;;;;;;20766549;28;20221;-67
2022/05/14 01:57:23;;;;;;;0.63;0.33;;;;;;;;;;20713250;28;20285;-67
2022/05/14 02:07:26;;;;;;;0.70;0.40;;;;;;;;;;20712791;28;20209;-67
2022/05/14 02:17:27;;;;;;;1.00;0.50;;;;;;;;;;20711992;28;20224;-67
2022/05/14 02:27:30;;;;;;;1.17;0.50;;;;;;;;;;20727258;28;20772;-67
2022/05/14 02:37:32;;;;;;;0.73;0.47;;;;;;;;;;20710385;28;20230;-67
2022/05/14 02:47:34;;;;;;;0.67;0.30;;;;;;;;;;20709669;28;20195;-67
2022/05/14 02:57:36;;;;;;;0.50;0.33;;;;;;;;;;20708896;28;20702;-67
2022/05/14 03:07:38;;;;;;;0.70;0.37;;;;;;;;;;20707752;28;20199;-67
2022/05/14 03:17:40;;;;;;;1.33;0.50;;;;;;;;;;20708065;28;20249;-67
2022/05/14 03:27:42;;;;;;;0.67;0.40;;;;;;;;;;20707897;28;20211;-67
2022/05/14 03:37:44;;;;;;;0.47;0.33;;;;;;;;;;20746784;28;20226;-67
2022/05/14 03:47:47;;;;;;;3.03;0.60;;;;;;;;;;20787920;28;20230;-67
2022/05/14 03:57:49;;;;;;;0.50;0.50;;;;;;;;;;20786016;28;20226;-67
2022/05/14 04:07:51;;;;;;;1.83;0.60;;;;;;;;;;20696143;28;20212;-67
2022/05/14 04:17:53;;;;;;;1.60;0.50;;;17.50;99.90;;;;;;20717574;28;20592;-66
2022/05/14 04:27:55;;;;;;;1.13;0.60;;;;;;;;;;20704407;28;20211;-67
2022/05/14 04:37:57;;;;;;;2.13;0.80;;;;;;;;;;20719598;28;20226;-67
2022/05/14 04:47:59;;;;;;;1.63;0.60;;;;;;;;;;20718965;28;20606;-67
2022/05/14 04:58:02;;;;;;;3.30;0.73;;;;;;;;;;20718548;28;20227;-67
2022/05/14 05:08:04;;;;;;;3.07;1.87;;;17.20;98.70;;;;;;20717128;28;20253;-67
2022/05/14 05:18:07;;;;;;;1.97;1.10;;;17.50;99.90;;;;;;20684750;28;20219;-68
2022/05/14 05:28:09;;;;;;;4.60;2.87;;;;;;;;;;20715183;28;20234;-68
2022/05/14 05:38:11;;;;;;;1.93;1.27;;;;;;;;;;20710495;28;20735;-67
2022/05/14 05:48:13;;;;;;;1.20;0.60;;;;;;;;;;20731789;28;20638;-67
2022/05/14 05:58:19;;;;;;;0.83;0.60;;;18.10;99.90;;;;;;20662804;28;20220;-67
2022/05/14 06:08:21;;;;;;;0.70;0.60;;;;;;;;;;20710369;28;20638;-67
2022/05/14 06:18:22;;;;;;;5.07;2.07;;;;;;;;;;20705074;28;20230;-67
2022/05/14 06:28:24;;;;;;;3.20;1.00;;;;;;;;;;20714169;28;20227;-69
2022/05/14 06:38:29;;;;;;;0.83;0.60;;;;;;;;;;20724789;28;20246;-68
2022/05/14 06:48:31;;;;;;;1.63;0.77;;;;;;;;;;20722319;28;20277;-68
2022/05/14 06:58:36;;;;;;;2.87;0.57;;;;;;;;;;20744913;28;20222;-68
2022/05/14 07:08:37;;;;;;;3.20;1.40;;;;;;;;;;20714224;28;20349;-69
2022/05/14 07:18:40;;;;;;;1.20;0.60;;;;;;;;;;20739641;28;20227;-70
2022/05/14 07:28:41;;;;;;;1.33;0.80;;;;;;;;;;20707274;28;20213;-70
2022/05/14 07:38:44;;;;;;;0.87;0.60;;;;;;;;;;20893158;22;20229;-74
2022/05/14 07:48:46;;;;;;;1.00;0.80;;;20.60;99.90;;;;;;21044647;28;20273;-77
2022/05/14 07:58:48;;;;;;;0.97;0.73;;;;;;;;;;21073258;28;20555;-75
2022/05/14 08:08:51;;;;;;;3.40;0.90;;;;;;;;;;21043453;28;20237;-77
2022/05/14 08:18:53;;;;;;;2.00;1.07;;;;;;;;;;21056869;28;20224;-76
2022/05/14 08:28:55;;;;;;;2.93;0.70;;;;;;;;;;21030819;28;20224;-76
2022/05/14 08:38:57;;;;;;;1.43;0.53;;;;;;;;;;20993315;28;20220;-76
2022/05/14 08:49:14;;;;;;;2.07;1.00;;;21.90;94.80;;;;;;21035443;28;20545;-77
2022/05/14 08:59:25;;;;;;;3.87;0.93;;;;;;;;;;21059999;28;20442;-76
2022/05/14 09:09:27;;;;;;;2.20;0.93;;;;;;;;;;21043908;28;20293;-76
2022/05/14 09:19:45;;;;;;;2.33;0.70;;;22.60;95.10;;;;;;21059909;28;20262;-77
2022/05/14 09:29:47;;;;;;;1.70;0.70;;;;;;;;;;21016859;28;20213;-76
2022/05/14 09:39:56;;;;;;;1.73;0.70;;;;;;;;;;21062051;28;20215;-76
2022/05/14 09:50:00;;;;;;;2.00;0.70;;;;;;;;;;21068764;28;20579;-76
2022/05/14 10:00:07;;;;;;;1.65;0.60;;;23.70;92.50;;;;;;21065799;28;20275;-76
2022/05/14 10:10:26;;;;;;;1.27;0.60;;;;;;;;;;21049190;28;20207;-77
2022/05/14 10:21:06;;;;;;;1.10;0.57;;;24.20;79.90;;;;;;21034003;28;20227;-77
2022/05/14 10:31:22;;;;;;;1.88;0.77;;;24.40;84.30;;;;;;21058665;28;20209;-80
2022/05/14 10:41:37;;;;;;;3.17;1.00;;;24.30;90.00;;;;;;21057755;28;20210;-81
2022/05/14 10:51:50;;;;;;;0.90;0.50;;;;;;;;;;21027415;28;20212;-77
2022/05/14 11:01:52;;;;;;;0.60;0.50;;;;;;;;;;21018985;28;20631;-80
2022/05/14 11:11:55;;;;;;;2.28;0.70;;;;;;;;;;21048608;28;20211;-78
2022/05/14 11:21:57;;;;;;;1.42;0.63;;;;;;;;;;21051608;28;20224;-80
2022/05/14 11:32:02;;;;;;;1.27;0.70;;;;;;;;;;21035492;28;20212;-80
2022/05/14 11:42:09;;;;;;;3.40;0.77;;;25.40;78.10;;;;;;21053071;28;20275;-80
2022/05/14 11:52:18;;;;;;;1.60;0.50;;;;;;;;;;21033566;28;20279;-80
2022/05/14 12:02:37;;;;;;;1.77;0.60;;;25.80;86.70;;;;;;21052421;28;20778;-80
2022/05/14 12:12:48;;;;;;;1.63;0.60;;;26.00;79.60;;;;;;20920861;28;20259;-80
2022/05/14 12:23:10;;;;;;;1.77;0.73;;;26.30;84.70;;;;;;21031751;28;20215;-80
2022/05/14 12:33:19;;;;;;;1.63;0.50;;;26.60;84.50;;;;;;21067957;28;20778;-80
2022/05/14 12:43:21;;;;;;;1.02;0.55;;;26.50;78.20;;;;;;20939386;28;20250;-80
2022/05/14 12:53:37;;;;;;;1.13;0.60;;;26.40;77.80;;;;;;20997030;28;20284;-80
2022/05/14 13:03:58;;;;;;;0.85;0.50;;;;;;;;;;21007453;28;20188;-80
2022/05/14 13:14:10;;;;;;;1.45;0.60;;;;;;;;;;21002972;28;20281;-80
2022/05/14 13:24:22;;;;;;;2.55;0.80;;;;;;;;;;21033107;28;20495;-77
2022/05/14 13:45:15;;;;;;;1.45;0.63;;;;;;;;;;20841761;28;20236;-69
2022/05/14 13:55:27;;;;;;;0.70;0.35;;;;;;;;;;20861170;28;20614;-69
2022/05/14 14:05:33;;;;;;;2.08;0.60;;;27.50;75.60;;;;;;20879988;28;20240;-69
2022/05/14 14:15:35;;;;;;;0.80;0.40;;;27.50;81.80;;;;;;20831820;28;20261;-69
2022/05/14 14:25:40;;;;;;;1.13;0.40;;;;;;;;;;20866333;28;20181;-67
2022/05/14 14:35:42;;;;;;;0.82;0.40;;;;;;;;;;20882336;28;20235;-69
2022/05/14 14:45:44;;;;;;;1.08;0.60;;;;;;;;;;20829230;28;20219;-69
2022/05/14 14:55:46;;;;;;;1.30;0.50;;;;;;;;;;20831514;28;20220;-69
2022/05/14 15:05:51;;;;;;;1.15;0.50;;;27.90;71.90;;;;;;20834066;28;20254;-69
2022/05/14 15:15:53;;;;;;;1.20;0.70;;;;;;;;;;20882518;28;20573;-70
2022/05/14 15:25:59;;;;;;;1.10;0.52;;;;;;;;;;20833641;28;20236;-68
2022/05/14 15:36:00;;;;;;;2.05;0.40;;;;;;;;;;20811112;28;20252;-70
2022/05/14 15:46:07;;;;;;;1.75;0.50;;;;;;;;;;20740813;28;20221;-69
2022/05/14 15:56:09;;;;;;;2.78;0.45;;;27.90;67.20;;;;;;20838606;28;20225;-71
2022/05/14 16:06:12;;;;;;;0.85;0.50;;;;;;;;;;20790678;28;20217;-71
2022/05/14 16:16:14;;;;;;;1.30;0.60;;;;;;;;;;20863619;28;20248;-70
2022/05/14 16:26:17;;;;;;;2.00;0.40;;;27.90;69.80;;;;;;20869944;28;20628;-69
2022/05/14 16:36:19;;;;;;;0.95;0.50;;;;;;;;;;20824964;28;20255;-68
2022/05/14 16:46:21;;;;;;;0.75;0.43;;;27.20;71.80;;;;;;20819242;28;20575;-69
2022/05/14 16:56:23;;;;;;;0.85;0.40;;;;;;;;;;20761936;28;20283;-69
2022/05/14 17:06:28;;;;;;;2.25;0.50;;;26.70;74.90;;;;;;20781685;28;20260;-69
2022/05/14 17:16:36;;;;;;;0.90;0.40;;;;;;;;;;20805406;28;20280;-70
2022/05/14 17:26:39;;;;;;;2.17;0.50;;;;;;;;;;20818873;28;20225;-69
2022/05/14 17:39:40;;;;;;;0.73;0.40;;;;;;;;;;20825361;28;20276;-69
2022/05/14 17:47:03;;;;;;;0.40;0.40;;;;;;;;;;20786539;28;20220;-68
2022/05/14 17:57:09;;;;;;;1.30;0.50;;;;;;;;;;20797964;28;20216;-70
2022/05/14 18:07:12;;;;;;;2.83;0.82;;;;;;;;;;20836347;28;20225;-69
2022/05/14 18:17:15;;;;;;;1.23;0.50;;;;;;;;;;20824452;28;20280;-69
2022/05/14 18:27:22;;;;;;;1.08;0.52;;;25.40;81.80;;;;;;20790601;28;20217;-69
2022/05/14 18:37:25;;;;;;;1.90;1.00;;;;;;;;;;20776465;28;20220;-69
2022/05/14 18:47:28;;;;;;;3.10;0.60;;;;;;;;;;20795901;28;20229;-69
2022/05/14 18:57:30;;;;;;;2.55;0.70;;;;;;;;;;20759144;28;20252;-69
2022/05/14 19:07:32;;;;;;;1.83;0.60;;;;;;;;;;20821599;28;20269;-69
2022/05/14 19:17:36;;;;;;;2.45;0.60;;;;;;;;;;20819323;28;20570;-69
2022/05/14 19:27:39;;;;;;;1.85;0.50;;;;;;;;;;20788127;28;20239;-69
2022/05/14 19:37:47;;;;;;;1.45;0.45;;;;;;;;;;20813961;28;20229;-69
2022/05/14 19:47:51;;;;;;;1.08;0.38;;;24.30;91.30;;;;;;20798462;28;20227;-69
2022/05/14 19:57:54;;;;;;;3.88;1.15;;;;;;;;;;20808509;28;20223;-69
2022/05/14 20:07:55;;;;;;;2.38;0.60;;;;;;;;;;20743165;28;20214;-69
2022/05/14 20:28:18;;;;;;;2.22;0.70;;;;;;;;;;20790933;28;20277;-69
2022/05/14 20:38:20;;;;;;;0.75;0.60;;;;;;;;;;20743626;28;20786;-69
2022/05/14 20:48:22;;;;;;;1.55;0.50;;;;;;;;;;20792795;28;20236;-69
2022/05/14 20:58:24;;;;;;;6.15;1.30;;;;;;;;;;20742033;28;20224;-69
2022/05/14 21:08:25;;;;;;;1.40;0.50;;;;;;;;;;20744296;28;20268;-69
2022/05/14 21:18:28;;;;;;;3.45;0.88;;;;;;;;;;20802097;28;20282;-69
2022/05/14 21:28:30;;;;;;;3.00;0.88;;;;;;;;;;20771771;28;20218;-69
2022/05/14 21:38:31;;;;;;;1.67;0.70;;;;;;;;;;20788980;28;20285;-69
2022/05/14 21:48:34;;;;;;;0.77;0.40;;;;;;;;;;20813968;28;20775;-69
2022/05/14 21:58:36;;;;;;;2.20;0.85;;;;;;;;;;20827509;28;20639;-69
2022/05/14 22:08:38;;;;;;;1.83;0.50;;;;;;;;;;20762065;28;20295;-69
2022/05/14 22:18:40;;;;;;;1.75;0.68;;;;;;;;;;20777224;28;20238;-69
2022/05/14 22:28:43;;;;;;;1.25;0.77;;;;;;;;;;20808475;28;20202;-69
2022/05/14 22:38:46;;;;;;;1.50;0.70;;;;;;;;;;20807359;28;20215;-69
2022/05/14 22:48:48;;;;;;;1.17;0.50;;;;;;;;;;20758807;28;20213;-69
2022/05/14 22:58:50;;;;;;;2.13;0.82;;;;;;;;;;20806026;28;20254;-68
2022/05/14 23:08:53;;;;;;;0.95;0.60;;;;;;;;;;20771442;28;20269;-69
2022/05/14 23:18:55;;;;;;;1.45;0.88;;;;;;;;;;20788494;28;20250;-69
2022/05/14 23:28:56;;;;;;;1.40;0.50;;;;;;;;;;20771407;28;20209;-69
2022/05/14 23:38:59;;;;;;;0.70;0.47;;;;;;;;;;20755976;28;20227;-69
2022/05/14 23:49:01;;;;;;;0.70;0.50;;;;;;;;;;20755281;28;20285;-69
